Погода Осецкна 2 недели

Мазовецкое воеводство, Польша

15 - 28 июля
  • 15июля
    Сегодня
    +19°
    +30°
    Практически безоблачно
    ВремяПогодаТемператураВлажностьДавлениеВетер, м/сВероятность осадков
    02:00Облачно с прояснениями+18°C95 %753 мм1.3 м/с2 %
    05:00Облачно с прояснениями+18°C95 %753 мм1.1 м/с2 %
    08:00Ясно и безоблачно+21°C84 %753 мм1.1 м/с14 %
    11:00Практически безоблачно+26°C65 %753 мм0.9 м/с5 %
    14:00Практически безоблачно+28°C58 %753 мм0.6 м/с5 %
    17:00Ясно и безоблачно+30°C49 %752 мм1.0 м/с2 %
    20:00Ясно и безоблачно+27°C63 %752 мм1.7 м/с2 %
    23:00Ясно и безоблачно+23°C76 %753 мм2.0 м/с2 %
  • 16июля
    Вторник
    +20°
    +34°
    Ясно и безоблачно
    ВремяПогодаТемператураВлажностьДавлениеВетер, м/сВероятность осадков
    02:00Ясно и безоблачно+21°C86 %752 мм1.8 м/с2 %
    05:00Ясно и безоблачно+20°C77 %752 мм1.8 м/с2 %
    08:00Ясно и безоблачно+25°C67 %753 мм2.4 м/с2 %
    11:00Ясно и безоблачно+29°C51 %752 мм4.3 м/с2 %
    14:00Ясно и безоблачно+32°C52 %751 мм3.8 м/с2 %
    17:00Пасмурно, дожди с грозами+27°C86 %751 мм5.0 м/с26 %
    20:00Небольшая облачность+25°C87 %751 мм2.4 м/с46 %
    23:00Облачно с прояснениями+23°C94 %751 мм2.4 м/с20 %
  • 17июля
    Среда
    +17°
    +30°
    Ясно и безоблачно
    ВремяПогодаТемператураВлажностьДавлениеВетер, м/сВероятность осадков
    02:00Небольшая облачность, возможен дождь с грозой+21°C94 %752 мм3.1 м/с33 %
    05:00Практически безоблачно+20°C95 %753 мм3.1 м/с10 %
    08:00Ясно и безоблачно+22°C82 %754 мм2.4 м/с2 %
    11:00Ясно и безоблачно+26°C48 %755 мм3.7 м/с2 %
    14:00Ясно и безоблачно+28°C40 %755 мм3.7 м/с4 %
    17:00Ясно и безоблачно+27°C44 %754 мм3.7 м/с2 %
    20:00Ясно и безоблачно+25°C51 %755 мм3.1 м/с6 %
    23:00Ясно и безоблачно+21°C66 %757 мм2.5 м/с7 %
  • 18июля
    Четверг
    +16°
    +27°
    Небольшая облачность
    ВремяПогодаТемператураВлажностьДавлениеВетер, м/сВероятность осадков
    02:00Практически безоблачно+19°C74 %757 мм1.9 м/с3 %
    05:00Ясно и безоблачно+17°C87 %757 мм1.9 м/с7 %
    08:00Ясно и безоблачно+21°C65 %758 мм1.7 м/с2 %
    11:00Практически безоблачно+25°C45 %758 мм3.3 м/с2 %
    14:00Небольшая облачность+27°C38 %757 мм4.3 м/с4 %
    17:00Ясно и безоблачно+27°C37 %757 мм3.3 м/с2 %
    20:00Облачно с прояснениями+23°C54 %757 мм1.7 м/с2 %
    23:00Ясно и безоблачно+21°C62 %758 мм1.9 м/с2 %
  • 19июля
    Пятница
    +16°
    +27°
    Облачно с прояснениями
    ВремяПогодаТемператураВлажностьДавлениеВетер, м/сВероятность осадков
    02:00Ясно и безоблачно+17°C79 %757 мм1.4 м/с2 %
    05:00Облачно с прояснениями+17°C85 %757 мм1.3 м/с2 %
    08:00Облачно с прояснениями+21°C67 %757 мм0.5 м/с2 %
    11:00Облачно с прояснениями+24°C52 %757 мм2.7 м/с7 %
    14:00Облачно с прояснениями+26°C47 %756 мм2.9 м/с21 %
    17:00Облачно с прояснениями+26°C46 %756 мм3.4 м/с15 %
    20:00Небольшая облачность+23°C56 %755 мм1.1 м/с4 %
    23:00Практически безоблачно+20°C61 %755 мм2.0 м/с2 %
Мы используем cookies
Соглашаюсь